Time;durP1;ratioP1;P1;durP2;ratioP2;P2;SDS_P1;SDS_P2;PMS_P1;PMS_P2;Temp;Humidity;BMP_temperature;BMP_pressure;BME280_temperature;BME280_humidity;BME280_pressure;Samples;Min_cycle;Max_cycle;Signal;HPM_P1;HPM_P2
2022/01/04 00:01:20;;;;;;;24.05;8.32;;;6.90;93.40;;;;;;4942559;28;20051;-88
2022/01/04 00:03:51;;;;;;;17.33;7.82;;;6.90;93.30;;;;;;4929287;29;20046;-88
2022/01/04 00:09:06;;;;;;;20.10;8.02;;;6.80;93.60;;;;;;4931083;29;20043;-88
2022/01/04 00:14:18;;;;;;;21.10;7.82;;;6.70;93.90;;;;;;4934268;29;20538;-88
2022/01/04 00:16:57;;;;;;;;;;;;;;;;;;;;;
2022/01/04 00:19:26;;;;;;;19.17;7.97;;;6.80;93.70;;;;;;4930793;29;20480;-88
2022/01/04 00:22:04;;;;;;;23.35;9.63;;;6.90;93.60;;;;;;4942756;28;20455;-88
2022/01/04 00:24:34;;;;;;;19.05;9.02;;;6.80;93.70;;;;;;4934333;29;20027;-88
2022/01/04 00:26:59;;;;;;;17.23;7.63;;;6.90;93.60;;;;;;4947267;28;20020;-88
2022/01/04 00:29:27;;;;;;;18.45;8.73;;;6.90;93.60;;;;;;4947313;28;20818;-88
2022/01/04 00:31:58;;;;;;;19.25;7.90;;;6.80;93.70;;;;;;4945348;28;20484;-88
2022/01/04 00:34:26;;;;;;;19.35;8.52;;;6.90;93.60;;;;;;4925442;29;20131;-88
2022/01/04 00:36:54;;;;;;;21.35;8.50;;;6.90;93.50;;;;;;4938872;28;20788;-88
2022/01/04 00:39:20;;;;;;;16.58;8.13;;;6.90;93.60;;;;;;4922533;29;20048;-88
2022/01/04 00:41:53;;;;;;;20.00;8.77;;;6.90;93.70;;;;;;4941078;28;20040;-88
2022/01/04 00:44:19;;;;;;;24.10;8.07;;;7.00;93.60;;;;;;4945313;28;20054;-88
2022/01/04 00:46:44;;;;;;;19.30;8.40;;;6.90;93.70;;;;;;4930232;29;20072;-88
2022/01/04 00:49:17;;;;;;;20.75;8.50;;;7.00;93.40;;;;;;4944796;28;20039;-88
2022/01/04 00:51:45;;;;;;;19.15;8.85;;;7.10;93.30;;;;;;4941891;28;20395;-88
2022/01/04 00:54:13;;;;;;;17.92;8.77;;;7.10;93.30;;;;;;4928686;29;20541;-88
2022/01/04 00:56:47;;;;;;;18.80;9.40;;;7.00;93.50;;;;;;4945073;28;20024;-88
2022/01/04 00:59:23;;;;;;;23.02;9.65;;;7.10;93.30;;;;;;4931390;29;20047;-88
2022/01/04 01:01:49;;;;;;;21.08;8.18;;;7.10;93.30;;;;;;4929137;29;20128;-88
2022/01/04 01:04:23;;;;;;;21.50;8.77;;;7.10;93.20;;;;;;4928083;29;20124;-88
2022/01/04 01:06:49;;;;;;;19.67;8.80;;;7.10;93.00;;;;;;4930720;29;20518;-88
2022/01/04 01:09:14;;;;;;;25.42;9.60;;;7.10;93.10;;;;;;4949464;28;20020;-88
2022/01/04 01:11:48;;;;;;;17.08;9.30;;;7.10;93.20;;;;;;4948789;28;20055;-88
2022/01/04 01:14:15;;;;;;;18.85;9.07;;;7.10;93.20;;;;;;4949641;28;20032;-88
2022/01/04 01:16:43;;;;;;;20.70;9.43;;;7.10;93.30;;;;;;4933184;29;20038;-88
2022/01/04 01:19:14;;;;;;;22.85;9.52;;;7.10;93.30;;;;;;4946243;28;20500;-88
2022/01/04 01:21:39;;;;;;;15.40;9.07;;;7.00;93.50;;;;;;4949749;28;20024;-88
2022/01/04 01:24:10;;;;;;;19.73;10.07;;;7.00;93.50;;;;;;4927569;29;20295;-88
2022/01/04 01:26:38;;;;;;;23.10;10.07;;;7.00;93.50;;;;;;4951033;28;20039;-88
2022/01/04 01:29:06;;;;;;;18.45;10.15;;;7.00;93.50;;;;;;4931378;29;20038;-88
2022/01/04 01:31:34;;;;;;;19.55;9.98;;;7.10;93.50;;;;;;4928480;29;20039;-88
2022/01/04 01:33:59;;;;;;;20.75;10.30;;;7.10;93.50;;;;;;4936179;29;20054;-88
2022/01/04 01:36:26;;;;;;;20.67;10.05;;;7.10;93.40;;;;;;4927298;29;20031;-88
2022/01/04 01:38:59;;;;;;;19.90;10.38;;;7.10;93.40;;;;;;4946336;28;20039;-88
2022/01/04 01:41:25;;;;;;;23.35;10.15;;;7.10;93.50;;;;;;4945893;28;20452;-88
2022/01/04 01:43:57;;;;;;;27.17;11.70;;;7.10;93.40;;;;;;4949289;28;20123;-88
2022/01/04 01:46:23;;;;;;;19.85;10.05;;;7.10;93.40;;;;;;4951705;28;20031;-88
2022/01/04 01:48:48;;;;;;;23.23;10.52;;;7.10;93.40;;;;;;4944189;28;20040;-88
2022/01/04 01:51:17;;;;;;;15.93;9.20;;;7.20;93.30;;;;;;4927682;29;20440;-88
2022/01/04 01:53:46;;;;;;;28.55;10.57;;;7.20;93.20;;;;;;4930317;29;20121;-89
2022/01/04 01:56:12;;;;;;;19.58;11.10;;;7.20;93.10;;;;;;4932602;29;20114;-88
2022/01/04 01:58:40;;;;;;;21.73;10.02;;;7.20;93.40;;;;;;4945913;28;20028;-88
2022/01/04 02:01:06;;;;;;;23.85;11.43;;;7.20;93.50;;;;;;4946509;28;20028;-88
2022/01/04 02:03:31;;;;;;;26.23;10.48;;;7.20;93.60;;;;;;4931676;29;20030;-89
2022/01/04 02:05:59;;;;;;;21.00;10.18;;;7.10;93.70;;;;;;4948748;28;20107;-88
2022/01/04 02:08:25;;;;;;;17.38;10.60;;;7.10;93.90;;;;;;4941999;28;20052;-88
2022/01/04 02:10:54;;;;;;;25.83;11.65;;;7.20;93.90;;;;;;4943511;28;20070;-88
2022/01/04 02:13:24;;;;;;;24.88;10.95;;;7.10;94.00;;;;;;4930031;29;20452;-89
2022/01/04 02:15:53;;;;;;;21.17;12.13;;;7.10;93.90;;;;;;4930741;29;20122;-88
2022/01/04 02:18:20;;;;;;;24.42;11.10;;;7.10;94.10;;;;;;4944204;28;20064;-88
2022/01/04 02:20:55;;;;;;;20.30;12.13;;;7.10;94.10;;;;;;4932218;29;20032;-88
2022/01/04 02:23:24;;;;;;;20.08;11.07;;;7.10;94.10;;;;;;4928985;29;20027;-88
2022/01/04 02:25:52;;;;;;;26.70;11.95;;;7.10;94.10;;;;;;4949485;28;20475;-88
2022/01/04 02:28:25;;;;;;;22.10;11.63;;;7.00;94.00;;;;;;4929448;29;20052;-88
2022/01/04 02:30:58;;;;;;;28.42;12.38;;;7.00;94.20;;;;;;4930910;29;20055;-88
2022/01/04 02:33:36;;;;;;;;;;;;;;;;;;;;;
2022/01/04 02:36:02;;;;;;;25.48;12.32;;;7.00;94.10;;;;;;4932980;29;20039;-88
2022/01/04 02:38:28;;;;;;;20.70;11.55;;;6.90;93.90;;;;;;4944426;28;20032;-88
2022/01/04 02:40:55;;;;;;;28.10;12.90;;;6.90;94.20;;;;;;4930797;29;20087;-88
2022/01/04 02:43:26;;;;;;;22.52;12.50;;;6.90;94.20;;;;;;4948939;28;20138;-89
2022/01/04 02:46:02;;;;;;;;;;;;;;;;;;;;;
2022/01/04 02:48:30;;;;;;;23.23;12.75;;;7.00;94.20;;;;;;4925703;29;20506;-88
2022/01/04 02:51:05;;;;;;;26.50;12.93;;;7.00;94.20;;;;;;4947544;28;20079;-89
2022/01/04 02:53:30;;;;;;;25.83;12.10;;;7.00;94.10;;;;;;4932382;29;20040;-88
2022/01/04 02:55:56;;;;;;;23.35;12.55;;;7.00;94.10;;;;;;4941246;28;20043;-88
2022/01/04 02:58:23;;;;;;;25.90;12.85;;;7.10;94.00;;;;;;4933021;29;20115;-88
2022/01/04 03:00:51;;;;;;;24.30;12.90;;;7.00;94.00;;;;;;4935838;29;20039;-88
2022/01/04 03:03:25;;;;;;;25.48;12.98;;;7.00;94.10;;;;;;4933213;29;20027;-88
2022/01/04 03:05:52;;;;;;;34.08;13.48;;;7.10;94.10;;;;;;4943012;28;20028;-88
2022/01/04 03:08:18;;;;;;;24.30;12.25;;;7.10;94.00;;;;;;4925235;29;20035;-88
2022/01/04 03:10:43;;;;;;;24.80;12.90;;;7.00;94.00;;;;;;4946271;28;20042;-88
2022/01/04 03:13:13;;;;;;;26.73;13.23;;;7.00;94.10;;;;;;4930420;29;20456;-89
2022/01/04 03:15:39;;;;;;;20.80;12.45;;;7.00;94.10;;;;;;4946921;28;20063;-89
2022/01/04 03:18:04;;;;;;;21.25;12.40;;;7.00;94.30;;;;;;4943836;28;20062;-89
2022/01/04 03:20:30;;;;;;;23.55;12.88;;;6.90;94.40;;;;;;4944982;28;20036;-88
2022/01/04 03:22:55;;;;;;;27.25;13.07;;;6.90;94.40;;;;;;4942524;28;20024;-89
2022/01/04 03:25:26;;;;;;;23.85;14.10;;;6.90;94.40;;;;;;4929429;29;20054;-88
2022/01/04 03:27:52;;;;;;;25.00;13.77;;;6.90;94.30;;;;;;4950877;28;20082;-88
2022/01/04 03:30:20;;;;;;;20.20;12.77;;;6.90;94.40;;;;;;4943906;28;20490;-88
2022/01/04 03:32:47;;;;;;;24.23;13.25;;;6.90;94.40;;;;;;4929707;29;20399;-88
2022/01/04 03:35:14;;;;;;;26.90;14.30;;;6.90;94.40;;;;;;4929310;29;20058;-88
2022/01/04 03:37:40;;;;;;;26.58;13.48;;;6.90;94.40;;;;;;4944067;28;20067;-88
2022/01/04 03:40:06;;;;;;;31.02;15.23;;;6.90;94.40;;;;;;4928886;29;20055;-89
2022/01/04 03:42:31;;;;;;;28.67;14.40;;;6.90;94.40;;;;;;4946507;28;20027;-88
2022/01/04 03:44:57;;;;;;;27.20;14.15;;;6.90;94.40;;;;;;4947769;28;20023;-88
2022/01/04 03:47:22;;;;;;;24.80;14.27;;;7.00;94.40;;;;;;4944736;28;20027;-89
2022/01/04 03:49:48;;;;;;;29.48;15.90;;;7.00;94.50;;;;;;4945260;28;20451;-88
2022/01/04 03:52:16;;;;;;;26.00;14.15;;;6.90;94.40;;;;;;4930921;29;20044;-88
2022/01/04 03:54:41;;;;;;;29.02;15.02;;;6.90;94.50;;;;;;4930664;29;20238;-88
2022/01/04 03:57:07;;;;;;;29.73;15.60;;;6.80;94.40;;;;;;4931857;29;20549;-88
2022/01/04 03:59:32;;;;;;;25.25;14.15;;;6.80;94.60;;;;;;4931266;29;20086;-88
2022/01/04 04:01:58;;;;;;;24.13;15.02;;;6.80;94.70;;;;;;4934355;29;20046;-89
2022/01/04 04:04:28;;;;;;;26.95;15.25;;;6.80;94.80;;;;;;4947037;28;20435;-88
2022/01/04 04:06:56;;;;;;;26.67;15.77;;;6.80;94.90;;;;;;4946748;28;20620;-88
2022/01/04 04:09:22;;;;;;;35.13;16.23;;;6.80;94.90;;;;;;4947582;28;20268;-88
2022/01/04 04:11:47;;;;;;;27.30;15.48;;;6.80;95.00;;;;;;4945095;28;20054;-88
2022/01/04 04:14:13;;;;;;;28.17;15.98;;;6.80;94.90;;;;;;4945210;28;20027;-88
2022/01/04 04:16:41;;;;;;;31.77;17.48;;;6.70;94.90;;;;;;4950807;28;20028;-88
2022/01/04 04:19:06;;;;;;;28.83;16.45;;;6.70;95.00;;;;;;4947095;28;20027;-88
2022/01/04 04:21:41;;;;;;;26.92;15.68;;;6.70;95.10;;;;;;4946072;28;20032;-88
2022/01/04 04:24:12;;;;;;;32.88;16.75;;;6.60;95.10;;;;;;4944421;28;20038;-88
2022/01/04 04:26:47;;;;;;;31.48;17.13;;;6.60;95.20;;;;;;4944066;28;20105;-88
2022/01/04 04:29:12;;;;;;;30.20;16.52;;;6.60;95.30;;;;;;4947493;28;20387;-88
2022/01/04 04:31:38;;;;;;;28.27;16.33;;;6.60;95.30;;;;;;4931820;29;20024;-88
2022/01/04 04:34:08;;;;;;;33.08;16.70;;;6.70;95.30;;;;;;4946581;28;20046;-88
2022/01/04 04:36:36;;;;;;;34.60;18.02;;;6.80;95.20;;;;;;4928327;29;20114;-88
2022/01/04 04:39:10;;;;;;;33.33;18.70;;;6.70;95.20;;;;;;4949221;28;20024;-88
2022/01/04 04:41:40;;;;;;;28.83;15.60;;;6.70;95.10;;;;;;4945933;28;20035;-88
2022/01/04 04:44:09;;;;;;;28.70;16.73;;;6.70;95.20;;;;;;4946706;28;20458;-88
2022/01/04 04:46:37;;;;;;;35.03;18.10;;;6.70;95.20;;;;;;4929363;29;20031;-88
2022/01/04 04:49:05;;;;;;;31.30;15.73;;;6.70;95.30;;;;;;4932008;29;20027;-88
2022/01/04 04:51:35;;;;;;;29.90;17.58;;;6.60;95.30;;;;;;4925299;29;20028;-88
2022/01/04 04:54:06;;;;;;;30.48;17.88;;;6.60;95.40;;;;;;4946493;28;20078;-88
2022/01/04 04:56:38;;;;;;;32.97;17.05;;;6.60;95.40;;;;;;4939672;29;20036;-88
2022/01/04 04:59:04;;;;;;;35.90;16.58;;;6.60;95.30;;;;;;4944815;28;20119;-88
2022/01/04 05:01:30;;;;;;;33.30;17.70;;;6.60;95.30;;;;;;4941629;28;20031;-88
2022/01/04 05:04:00;;;;;;;37.67;17.90;;;6.60;95.40;;;;;;4941633;28;20027;-88
2022/01/04 05:06:26;;;;;;;38.03;18.15;;;6.50;95.40;;;;;;4928388;29;20027;-88
2022/01/04 05:09:01;;;;;;;32.50;17.95;;;6.50;95.50;;;;;;4928863;29;20032;-88
2022/01/04 05:11:29;;;;;;;29.90;18.10;;;6.50;95.60;;;;;;4947113;28;20036;-88
2022/01/04 05:14:03;;;;;;;34.78;18.17;;;6.50;95.60;;;;;;4928095;29;20122;-88
2022/01/04 05:16:38;;;;;;;34.60;18.42;;;6.50;95.70;;;;;;4922580;29;20035;-89
2022/01/04 05:19:06;;;;;;;30.95;16.75;;;6.50;95.70;;;;;;4928147;29;20078;-89
2022/01/04 05:21:34;;;;;;;33.75;17.85;;;6.50;95.80;;;;;;4933433;28;20039;-89
2022/01/04 05:24:04;;;;;;;37.13;18.60;;;6.50;95.80;;;;;;4940148;28;20020;-89
2022/01/04 05:26:37;;;;;;;39.65;18.30;;;6.60;95.80;;;;;;4927396;29;20036;-89
2022/01/04 05:29:10;;;;;;;41.63;18.83;;;6.50;95.80;;;;;;4943438;28;20042;-89
2022/01/04 05:31:41;;;;;;;30.00;16.63;;;6.50;95.70;;;;;;4937713;29;20031;-89
2022/01/04 05:34:26;;;;;;;;;;;;;;;;;;;;;
2022/01/04 05:36:56;;;;;;;34.80;18.70;;;6.50;95.80;;;;;;4926959;29;20036;-89
2022/01/04 05:39:44;;;;;;;35.67;18.80;;;6.50;95.80;;;;;;4925103;29;20039;-89
2022/01/04 05:42:15;;;;;;;33.45;18.10;;;6.50;95.90;;;;;;4927340;29;20479;-89
2022/01/04 05:44:41;;;;;;;32.60;18.38;;;6.60;95.90;;;;;;4945244;28;20028;-89
2022/01/04 05:47:16;;;;;;;37.30;19.70;;;6.60;95.90;;;;;;4942775;28;20483;-89
2022/01/04 05:49:46;;;;;;;40.85;18.92;;;6.60;95.90;;;;;;4932125;29;20091;-89
2022/01/04 05:52:12;;;;;;;32.33;18.88;;;6.60;95.90;;;;;;4938791;28;20028;-89
2022/01/04 05:54:59;;;;;;;;;;;;;;;;;;;;;
2022/01/04 05:57:25;;;;;;;39.63;19.13;;;6.70;95.80;;;;;;4927878;29;20399;-89
2022/01/04 05:59:57;;;;;;;34.60;18.30;;;6.70;95.70;;;;;;4947251;28;20031;-89
2022/01/04 06:02:25;;;;;;;32.25;17.85;;;6.70;95.60;;;;;;4930403;29;20063;-89
2022/01/04 06:04:54;;;;;;;31.25;17.75;;;6.70;95.60;;;;;;4932140;29;20503;-89
2022/01/04 06:07:58;;;;;;;35.65;18.02;;;6.70;95.60;;;;;;4929077;29;20028;-89
2022/01/04 06:10:23;;;;;;;29.85;17.48;;;6.70;95.70;;;;;;4925046;29;20116;-89
2022/01/04 06:15:20;;;;;;;30.70;17.10;;;6.70;95.70;;;;;;4928421;29;20487;-89
2022/01/04 06:18:09;;;;;;;33.58;16.83;;;6.70;95.70;;;;;;4945482;28;20037;-89
2022/01/04 06:20:43;;;;;;;35.20;17.88;;;6.70;95.70;;;;;;4934569;28;20396;-89
2022/01/04 06:23:11;;;;;;;31.27;16.92;;;6.70;95.70;;;;;;4943286;28;20023;-89
2022/01/04 06:25:40;;;;;;;36.33;18.17;;;6.70;95.70;;;;;;4921519;29;20036;-89
2022/01/04 06:28:07;;;;;;;30.02;17.20;;;6.70;95.70;;;;;;4921504;29;20023;-89
2022/01/04 06:30:36;;;;;;;31.70;17.65;;;6.70;95.70;;;;;;4945912;28;20019;-89
2022/01/04 06:33:01;;;;;;;32.42;18.30;;;6.70;95.60;;;;;;4943797;28;20024;-89
2022/01/04 06:35:29;;;;;;;35.03;17.42;;;6.70;95.60;;;;;;4947530;28;20075;-89
2022/01/04 06:37:57;;;;;;;29.52;17.48;;;6.60;95.70;;;;;;4947829;28;20047;-89
2022/01/04 06:40:23;;;;;;;34.15;17.67;;;6.60;95.70;;;;;;4935932;29;20015;-89
2022/01/04 06:42:51;;;;;;;36.42;18.08;;;6.60;95.80;;;;;;4932165;29;20035;-89
2022/01/04 06:45:19;;;;;;;32.40;17.55;;;6.70;95.80;;;;;;4945029;28;20020;-89
2022/01/04 06:47:47;;;;;;;32.13;18.10;;;6.70;95.70;;;;;;4933268;29;20038;-91
2022/01/04 06:50:15;;;;;;;34.45;18.58;;;6.70;95.70;;;;;;4925517;28;20060;-89
2022/01/04 06:52:46;;;;;;;34.90;17.85;;;6.70;95.70;;;;;;4947758;28;20027;-89
2022/01/04 06:55:11;;;;;;;28.23;17.55;;;6.70;95.70;;;;;;4951220;28;20408;-89
2022/01/04 06:57:37;;;;;;;36.92;18.60;;;6.70;95.70;;;;;;4929319;29;20065;-89
2022/01/04 07:00:08;;;;;;;34.17;17.67;;;6.70;95.80;;;;;;4932146;29;20490;-90
2022/01/04 07:02:44;;;;;;;33.72;18.45;;;6.70;95.70;;;;;;4949865;28;20073;-90
2022/01/04 07:05:12;;;;;;;36.75;18.77;;;6.70;95.70;;;;;;4933024;29;20439;-90
2022/01/04 07:07:48;;;;;;;36.08;18.60;;;6.80;95.70;;;;;;4946214;28;20024;-90
2022/01/04 07:10:19;;;;;;;31.85;17.95;;;6.70;95.80;;;;;;4927659;29;20038;-89
2022/01/04 07:12:57;;;;;;;33.17;18.10;;;6.80;95.80;;;;;;4924538;29;20167;-90
2022/01/04 07:15:30;;;;;;;33.00;18.88;;;6.70;95.90;;;;;;4932606;29;20024;-90
2022/01/04 07:18:03;;;;;;;33.47;18.90;;;6.80;95.80;;;;;;4950445;28;20427;-90
2022/01/04 07:20:46;;;;;;;36.30;18.58;;;6.70;95.80;;;;;;4944214;28;20027;-90
2022/01/04 07:23:23;;;;;;;32.97;17.98;;;6.80;95.80;;;;;;4947124;28;20028;-89
2022/01/04 07:25:48;;;;;;;32.33;18.48;;;6.70;95.80;;;;;;4937020;28;20548;-90
2022/01/04 07:28:18;;;;;;;35.42;19.85;;;6.70;95.80;;;;;;4929693;29;20115;-90
2022/01/04 07:30:44;;;;;;;31.70;19.45;;;6.70;95.90;;;;;;4928861;29;20036;-90
2022/01/04 07:33:15;;;;;;;40.22;19.42;;;6.70;96.00;;;;;;4929193;28;20361;-90
2022/01/04 07:35:41;;;;;;;33.10;18.98;;;6.70;96.00;;;;;;4943987;28;20059;-89
2022/01/04 07:40:54;;;;;;;31.00;18.90;;;6.70;96.00;;;;;;4933428;29;20039;-89
2022/01/04 07:43:20;;;;;;;30.63;19.30;;;6.70;96.00;;;;;;4947993;28;20032;-89
2022/01/04 07:45:48;;;;;;;34.25;19.20;;;6.70;96.00;;;;;;4932714;29;20032;-89
2022/01/04 07:48:16;;;;;;;35.08;19.05;;;6.70;96.00;;;;;;4930606;29;20135;-89
2022/01/04 07:50:42;;;;;;;35.67;19.30;;;6.70;96.00;;;;;;4932405;29;20441;-89
2022/01/04 07:53:08;;;;;;;30.75;18.48;;;6.70;96.00;;;;;;4932800;29;20070;-89
2022/01/04 07:55:34;;;;;;;36.88;19.98;;;6.70;96.00;;;;;;4932204;29;20070;-89
2022/01/04 07:58:00;;;;;;;33.92;20.13;;;6.80;96.00;;;;;;4932675;29;20027;-89
2022/01/04 08:00:28;;;;;;;34.53;19.88;;;6.80;96.00;;;;;;4932815;29;20522;-90
2022/01/04 08:02:55;;;;;;;32.03;19.13;;;6.80;95.90;;;;;;4934465;29;20488;-89
2022/01/04 08:05:22;;;;;;;34.10;18.95;;;6.80;95.90;;;;;;4931115;29;20516;-90
2022/01/04 08:07:49;;;;;;;32.42;18.65;;;6.80;95.90;;;;;;4933514;29;20028;-89
2022/01/04 08:10:18;;;;;;;35.30;18.73;;;6.80;95.80;;;;;;4934011;29;20542;-88
2022/01/04 08:12:47;;;;;;;37.47;19.13;;;6.80;95.80;;;;;;4948067;28;20042;-89
2022/01/04 08:15:12;;;;;;;30.88;19.95;;;6.80;95.80;;;;;;4927776;29;20484;-87
2022/01/04 08:17:41;;;;;;;31.63;19.80;;;6.80;95.80;;;;;;4930393;29;20056;-87
2022/01/04 08:20:08;;;;;;;29.40;18.33;;;6.80;95.80;;;;;;4945301;28;20063;-87
2022/01/04 08:22:39;;;;;;;31.70;18.67;;;6.90;95.80;;;;;;4931163;29;20514;-89
2022/01/04 08:25:08;;;;;;;37.67;19.40;;;6.90;95.70;;;;;;4928860;29;20495;-87
2022/01/04 08:27:34;;;;;;;32.30;18.95;;;7.00;95.70;;;;;;4931021;29;20059;-87
2022/01/04 08:30:04;;;;;;;35.13;18.85;;;7.00;95.60;;;;;;4928794;29;20073;-87
2022/01/04 08:32:30;;;;;;;30.17;17.93;;;7.00;95.50;;;;;;4951127;28;20047;-87
2022/01/04 08:34:55;;;;;;;29.73;18.20;;;7.00;95.50;;;;;;4921404;29;20111;-86
2022/01/04 08:37:24;;;;;;;29.98;17.25;;;7.00;95.40;;;;;;4927011;29;20028;-87
2022/01/04 08:39:49;;;;;;;31.02;17.77;;;7.10;95.30;;;;;;4949447;28;20098;-87
2022/01/04 08:42:15;;;;;;;30.42;18.00;;;7.10;95.40;;;;;;4943115;28;20023;-87
2022/01/04 08:44:40;;;;;;;31.10;18.30;;;7.10;95.30;;;;;;4943420;28;20084;-87
2022/01/04 08:47:07;;;;;;;29.50;18.45;;;7.10;95.30;;;;;;4944259;28;20067;-88
2022/01/04 08:49:34;;;;;;;27.77;17.40;;;7.10;95.50;;;;;;4920964;28;20063;-88
2022/01/04 08:52:00;;;;;;;32.72;18.25;;;7.10;95.60;;;;;;4942907;28;20035;-88
2022/01/04 08:54:25;;;;;;;33.38;18.17;;;7.00;95.80;;;;;;4931233;29;21263;-88
2022/01/04 08:56:51;;;;;;;32.60;18.67;;;7.00;95.90;;;;;;4946870;28;20134;-88
2022/01/04 08:59:17;;;;;;;31.52;19.73;;;7.10;96.00;;;;;;4941323;28;20067;-88
2022/01/04 09:01:42;;;;;;;37.70;20.30;;;7.00;96.00;;;;;;4932900;29;20440;-88
2022/01/04 09:04:08;;;;;;;31.58;18.80;;;7.00;96.10;;;;;;4924894;29;20024;-88
2022/01/04 09:06:34;;;;;;;26.02;17.35;;;7.00;96.10;;;;;;4926834;29;20051;-88
2022/01/04 09:09:00;;;;;;;32.78;18.10;;;7.00;96.10;;;;;;4938575;28;20538;-88
2022/01/04 09:11:26;;;;;;;34.55;19.17;;;7.00;96.10;;;;;;4941853;28;20059;-87
2022/01/04 09:14:01;;;;;;;29.38;18.83;;;7.00;96.10;;;;;;4942478;28;20042;-87
2022/01/04 09:19:10;;;;;;;33.03;18.90;;;7.00;96.00;;;;;;4926731;29;20070;-86
2022/01/04 09:21:37;;;;;;;31.55;19.92;;;7.00;96.10;;;;;;4924729;29;20031;-86
2022/01/04 09:24:05;;;;;;;30.58;18.88;;;7.00;96.20;;;;;;4930397;29;20020;-87
2022/01/04 09:26:33;;;;;;;38.03;18.88;;;7.00;96.10;;;;;;4930172;29;20436;-87
2022/01/04 09:28:58;;;;;;;33.30;19.25;;;7.10;95.90;;;;;;4929227;29;20502;-87
2022/01/04 09:31:26;;;;;;;28.92;18.67;;;7.10;95.90;;;;;;4935049;29;20040;-86
2022/01/04 09:33:53;;;;;;;33.40;19.20;;;7.10;95.80;;;;;;4948152;28;20031;-86
2022/01/04 09:36:19;;;;;;;31.17;18.50;;;7.10;95.80;;;;;;4928340;29;20111;-86
2022/01/04 09:38:47;;;;;;;30.88;19.55;;;7.10;95.80;;;;;;4944324;28;20126;-86
2022/01/04 09:41:13;;;;;;;32.53;19.55;;;7.10;95.70;;;;;;4928965;29;20119;-86
2022/01/04 09:43:38;;;;;;;31.55;18.85;;;7.20;95.60;;;;;;4932247;29;20119;-87
2022/01/04 09:46:04;;;;;;;29.58;18.45;;;7.20;95.60;;;;;;4927197;29;20329;-86
2022/01/04 09:48:30;;;;;;;30.50;18.65;;;7.20;95.60;;;;;;4927365;29;20440;-86
2022/01/04 09:50:57;;;;;;;35.33;18.98;;;7.20;95.40;;;;;;4935076;28;20159;-86
2022/01/04 09:53:24;;;;;;;33.83;18.85;;;7.30;95.50;;;;;;4929817;29;20390;-86
2022/01/04 09:55:51;;;;;;;31.42;18.67;;;7.20;95.40;;;;;;4925465;29;20027;-86
2022/01/04 09:58:22;;;;;;;31.05;17.63;;;7.20;95.40;;;;;;4942746;28;20031;-86
2022/01/04 10:00:48;;;;;;;29.77;18.27;;;7.20;95.30;;;;;;4927943;29;20030;-87
2022/01/04 10:03:17;;;;;;;34.08;17.92;;;7.30;95.30;;;;;;4928768;29;20024;-86
2022/01/04 10:05:44;;;;;;;31.92;18.50;;;7.30;95.30;;;;;;4925419;29;20039;-86
2022/01/04 10:08:11;;;;;;;31.63;16.90;;;7.40;95.10;;;;;;4945416;28;20019;-86
2022/01/04 10:10:38;;;;;;;34.55;18.50;;;7.30;95.00;;;;;;4926264;29;20504;-87
2022/01/04 10:13:19;;;;;;;26.17;16.55;;;7.40;94.90;;;;;;4926160;29;20028;-86
2022/01/04 10:15:47;;;;;;;;;;;7.40;94.80;;;;;;4929225;29;20031;-87
2022/01/04 10:18:12;;;;;;;29.48;15.35;;;7.40;94.80;;;;;;4944498;28;20427;-86
2022/01/04 10:20:51;;;;;;;26.48;16.50;;;7.40;94.70;;;;;;4929612;29;20103;-87
2022/01/04 10:23:26;;;;;;;25.85;16.08;;;7.40;94.70;;;;;;4925934;29;20476;-86
2022/01/04 10:26:02;;;;;;;24.42;15.25;;;7.40;94.60;;;;;;4932530;29;20032;-86
2022/01/04 10:28:35;;;;;;;29.52;16.65;;;7.40;94.60;;;;;;4928656;29;20073;-86
2022/01/04 10:31:06;;;;;;;24.95;16.30;;;7.40;94.50;;;;;;4944096;29;20036;-86
2022/01/04 10:33:35;;;;;;;28.00;16.77;;;7.50;94.60;;;;;;4940302;28;20528;-87
2022/01/04 10:36:14;;;;;;;23.17;15.77;;;7.40;94.80;;;;;;4946079;28;20035;-86
2022/01/04 10:38:47;;;;;;;27.23;16.33;;;7.40;94.90;;;;;;4940882;28;20032;-87
2022/01/04 10:41:16;;;;;;;33.90;16.23;;;7.40;94.90;;;;;;4938212;28;20039;-86
2022/01/04 10:43:44;;;;;;;26.90;15.10;;;7.40;94.70;;;;;;4940147;28;20024;-86
2022/01/04 10:46:15;;;;;;;25.30;15.93;;;7.40;94.60;;;;;;4945278;28;20024;-87
2022/01/04 10:48:45;;;;;;;30.38;15.88;;;7.40;94.50;;;;;;4925366;29;20049;-87
2022/01/04 10:51:16;;;;;;;27.30;16.02;;;7.50;94.50;;;;;;4944651;28;20039;-87
2022/01/04 10:53:46;;;;;;;;;;;7.40;94.70;;;;;;4926261;29;20050;-86
2022/01/04 10:56:17;;;;;;;25.15;15.30;;;7.40;94.80;;;;;;4942310;28;19911;-86
2022/01/04 10:58:49;;;;;;;25.08;14.85;;;7.30;95.20;;;;;;4942900;28;20038;-86
2022/01/04 11:01:21;;;;;;;21.88;12.50;;;7.30;95.40;;;;;;4941522;28;20477;-86
2022/01/04 11:04:01;;;;;;;30.13;14.43;;;7.20;95.30;;;;;;4944532;28;20035;-86
2022/01/04 11:06:33;;;;;;;26.83;15.57;;;7.10;95.60;;;;;;4925734;29;20031;-86
2022/01/04 11:08:59;;;;;;;33.13;16.70;;;7.10;95.80;;;;;;4932064;29;20039;-87
2022/01/04 11:11:26;;;;;;;31.80;15.95;;;7.10;96.00;;;;;;4936712;28;20492;-86
2022/01/04 11:13:52;;;;;;;33.00;16.27;;;7.10;96.20;;;;;;4928533;29;20491;-86
2022/01/04 11:16:23;;;;;;;34.63;17.55;;;7.10;96.50;;;;;;4948045;29;20118;-86
2022/01/04 11:18:52;;;;;;;31.58;15.65;;;7.00;96.60;;;;;;4933684;29;20491;-85
2022/01/04 11:21:31;;;;;;;9.88;5.03;;;7.00;96.90;;;;;;4926250;29;20035;-86
2022/01/04 11:23:58;;;;;;;6.55;2.90;;;6.50;95.70;;;;;;4945565;28;20034;-86
2022/01/04 11:26:25;;;;;;;6.63;3.70;;;6.40;95.30;;;;;;4930642;29;20103;-87
2022/01/04 11:28:52;;;;;;;14.07;5.10;;;6.50;95.60;;;;;;4927639;29;20036;-86
2022/01/04 11:31:47;;;;;;;12.98;5.38;;;6.50;95.90;;;;;;4929246;29;20027;-86
2022/01/04 11:34:32;;;;;;;11.32;5.72;;;6.50;96.10;;;;;;4943196;28;20040;-87
2022/01/04 11:36:57;;;;;;;12.93;5.18;;;6.40;95.90;;;;;;4925411;29;20028;-86
2022/01/04 11:39:32;;;;;;;8.98;4.90;;;6.40;95.80;;;;;;4933349;29;20051;-86
2022/01/04 11:42:02;;;;;;;11.10;4.93;;;6.30;95.70;;;;;;4943892;28;20451;-87
2022/01/04 11:44:29;;;;;;;14.68;5.10;;;6.30;95.70;;;;;;4931377;29;20374;-87
2022/01/04 11:47:22;;;;;;;9.75;4.53;;;6.30;95.90;;;;;;4930431;29;20059;-87
2022/01/04 11:50:23;;;;;;;9.48;4.35;;;6.20;95.90;;;;;;4928091;29;20032;-88
2022/01/04 11:52:51;;;;;;;9.20;3.25;;;6.10;96.20;;;;;;4929179;29;20083;-88
2022/01/04 11:55:26;;;;;;;7.95;3.28;;;6.10;96.30;;;;;;4932450;29;20047;-88
2022/01/04 11:57:57;;;;;;;12.95;3.40;;;6.10;96.30;;;;;;4945185;28;20079;-88
2022/01/04 12:00:38;;;;;;;12.18;3.95;;;6.10;96.40;;;;;;4930265;29;20437;-88
2022/01/04 12:03:11;;;;;;;;;;;6.10;96.50;;;;;;4927594;29;20629;-88
2022/01/04 12:05:39;;;;;;;8.63;3.42;;;6.00;96.70;;;;;;4921647;29;19911;-88
2022/01/04 12:08:23;;;;;;;11.57;3.58;;;6.00;96.80;;;;;;4927005;29;20060;-88
2022/01/04 12:10:53;;;;;;;10.52;3.67;;;6.10;96.90;;;;;;4942653;28;20028;-88
2022/01/04 12:13:20;;;;;;;15.27;4.72;;;6.10;97.00;;;;;;4923567;29;20495;-88
2022/01/04 12:15:57;;;;;;;9.57;3.83;;;6.10;97.00;;;;;;4926438;29;20058;-88
2022/01/04 12:18:23;;;;;;;8.77;3.85;;;6.10;97.00;;;;;;4944865;28;20016;-88
2022/01/04 12:20:49;;;;;;;6.45;3.13;;;6.10;97.00;;;;;;4943210;28;20078;-88
2022/01/04 12:23:29;;;;;;;7.22;3.08;;;6.10;97.00;;;;;;4928773;29;20542;-88
2022/01/04 12:26:08;;;;;;;9.13;3.50;;;6.10;97.00;;;;;;4940693;28;20036;-88
2022/01/04 12:28:57;;;;;;;9.25;3.08;;;6.10;96.90;;;;;;4931744;29;20026;-88
2022/01/04 12:31:28;;;;;;;10.02;3.22;;;6.20;97.10;;;;;;4930395;29;20381;-87
2022/01/04 12:33:55;;;;;;;10.45;2.63;;;6.10;97.00;;;;;;4939160;28;20039;-87
2022/01/04 12:36:30;;;;;;;11.63;2.75;;;6.10;97.00;;;;;;4931925;29;20039;-87
2022/01/04 12:38:58;;;;;;;10.35;2.65;;;6.10;97.00;;;;;;4927094;29;20040;-87
2022/01/04 12:41:25;;;;;;;5.15;2.40;;;6.10;96.90;;;;;;4927640;29;20484;-87
2022/01/04 12:43:51;;;;;;;12.70;3.10;;;6.10;97.00;;;;;;4921633;29;20583;-87
2022/01/04 12:46:32;;;;;;;9.02;2.83;;;6.10;97.00;;;;;;4931871;29;20760;-87
2022/01/04 12:49:01;;;;;;;7.32;2.30;;;6.10;97.00;;;;;;4926414;29;20039;-88
2022/01/04 12:51:31;;;;;;;11.38;2.72;;;6.10;96.90;;;;;;4926777;29;20039;-88
2022/01/04 12:53:59;;;;;;;6.25;2.20;;;6.10;97.00;;;;;;4930264;29;20032;-88
2022/01/04 12:56:26;;;;;;;8.73;2.25;;;6.10;97.00;;;;;;4930695;29;20031;-88
2022/01/04 12:58:54;;;;;;;7.75;1.95;;;6.10;96.90;;;;;;4931113;29;20027;-88
2022/01/04 13:01:30;;;;;;;7.78;2.47;;;6.10;96.90;;;;;;4927545;29;20028;-88
2022/01/04 13:03:56;;;;;;;4.03;1.85;;;6.00;96.90;;;;;;4927061;29;20020;-88
2022/01/04 13:06:25;;;;;;;7.03;2.05;;;6.00;96.80;;;;;;4927818;28;20032;-88
2022/01/04 13:09:02;;;;;;;4.25;1.83;;;6.00;96.90;;;;;;4924311;29;20020;-88
2022/01/04 13:11:27;;;;;;;8.75;2.10;;;6.00;96.90;;;;;;4926193;29;20092;-88
2022/01/04 13:13:58;;;;;;;8.20;2.15;;;6.00;96.90;;;;;;4946340;28;20031;-88